Time;durP1;ratioP1;P1;durP2;ratioP2;P2;SDS_P1;SDS_P2;PMS_P1;PMS_P2;Temp;Humidity;BMP_temperature;BMP_pressure;BME280_temperature;BME280_humidity;BME280_pressure;Samples;Min_cycle;Max_cycle;Signal;HPM_P1;HPM_P2
2023/08/19 00:01:17;;;;;;;8.20;7.60;;;27.20;98.00;;;;;;4960235;28;20560;-89
2023/08/19 00:03:45;;;;;;;8.03;7.33;;;27.20;98.00;;;;;;4976763;28;20429;-91
2023/08/19 00:06:31;;;;;;;8.90;8.10;;;27.10;97.90;;;;;;4928868;28;20431;-91
2023/08/19 00:08:59;;;;;;;8.40;7.60;;;27.10;97.90;;;;;;4958983;28;20504;-87
2023/08/19 00:11:27;;;;;;;8.00;7.30;;;27.10;97.90;;;;;;4963119;28;20464;-91
2023/08/19 00:13:53;;;;;;;8.27;7.57;;;27.10;97.90;;;;;;4963152;28;20433;-88
2023/08/19 00:16:21;;;;;;;8.43;7.63;;;27.10;97.90;;;;;;4979492;28;20528;-89
2023/08/19 00:18:49;;;;;;;9.13;8.23;;;27.10;98.00;;;;;;4963253;28;20512;-90
2023/08/19 00:21:15;;;;;;;8.20;7.40;;;27.10;98.00;;;;;;4996513;28;20300;-90
2023/08/19 00:23:41;;;;;;;7.17;6.63;;;27.10;98.00;;;;;;4979163;28;20448;-90
2023/08/19 00:26:07;;;;;;;7.50;6.80;;;27.10;98.00;;;;;;4979487;28;20433;-88
2023/08/19 00:28:33;;;;;;;8.13;7.53;;;27.10;98.00;;;;;;4995851;28;20520;-91
2023/08/19 00:30:59;;;;;;;7.80;7.20;;;27.10;98.00;;;;;;4947441;28;20460;-91
2023/08/19 00:33:27;;;;;;;7.83;7.23;;;27.10;98.00;;;;;;4979446;28;20437;-89
2023/08/19 00:35:56;;;;;;;10.00;7.80;;;27.10;98.00;;;;;;4962832;28;20979;-91
2023/08/19 00:38:21;;;;;;;7.57;6.97;;;27.10;98.00;;;;;;4978808;28;20186;-90
2023/08/19 00:40:47;;;;;;;8.50;7.80;;;27.10;98.00;;;;;;4995199;28;20437;-89
2023/08/19 00:43:13;;;;;;;7.60;7.00;;;27.00;98.30;;;;;;4978072;28;20225;-89
2023/08/19 00:45:42;;;;;;;7.63;7.03;;;27.00;98.00;;;;;;4978597;28;20201;-90
2023/08/19 00:48:14;;;;;;;8.63;7.50;;;27.00;98.00;;;;;;4947413;28;20210;-90
2023/08/19 00:50:41;;;;;;;8.53;7.73;;;27.00;98.00;;;;;;4963218;28;20587;-87
2023/08/19 00:53:08;;;;;;;7.63;7.00;;;27.00;98.00;;;;;;4978651;28;20448;-89
2023/08/19 00:55:35;;;;;;;7.60;7.00;;;27.00;98.00;;;;;;4961720;28;20519;-91
2023/08/19 00:58:03;;;;;;;7.60;7.00;;;27.00;98.00;;;;;;4962463;28;20433;-89
2023/08/19 01:00:32;;;;;;;7.47;6.80;;;27.00;98.00;;;;;;4995457;28;20460;-90
2023/08/19 01:03:01;;;;;;;8.60;7.80;;;27.00;98.00;;;;;;4962268;28;20876;-90
2023/08/19 01:05:42;;;;;;;7.60;6.97;;;27.00;98.00;;;;;;4978976;28;20806;-89
2023/08/19 01:08:13;;;;;;;7.80;7.10;;;27.00;98.00;;;;;;4978694;28;20951;-89
2023/08/19 01:10:44;;;;;;;7.80;7.00;;;26.90;98.00;;;;;;4979864;28;20449;-90
2023/08/19 01:13:12;;;;;;;8.30;7.50;;;26.90;98.00;;;;;;4949102;28;20417;-91
2023/08/19 01:15:51;;;;;;;7.50;6.90;;;26.90;98.00;;;;;;4983497;28;20444;-89
2023/08/19 01:18:26;;;;;;;7.60;6.90;;;26.90;98.00;;;;;;4984636;28;20453;-91
2023/08/19 01:20:54;;;;;;;7.77;6.77;;;26.90;98.00;;;;;;4988378;28;20425;-88
2023/08/19 01:23:31;;;;;;;6.80;6.30;;;26.90;98.00;;;;;;4965347;28;20425;-90
2023/08/19 01:25:58;;;;;;;7.40;6.70;;;26.90;98.00;;;;;;4968988;28;20461;-90
2023/08/19 01:28:25;;;;;;;8.23;7.53;;;26.90;98.00;;;;;;4950055;28;20509;-91
2023/08/19 01:30:51;;;;;;;7.50;6.67;;;26.90;98.00;;;;;;4976068;28;20449;-92
2023/08/19 01:33:18;;;;;;;7.30;6.60;;;26.90;98.00;;;;;;4956678;28;20442;-89
2023/08/19 01:36:05;;;;;;;7.20;6.60;;;26.90;98.00;;;;;;4963729;28;20422;-88
2023/08/19 01:38:54;;;;;;;7.33;6.73;;;26.80;98.00;;;;;;4958671;28;20885;-88
2023/08/19 01:41:28;;;;;;;7.87;7.10;;;26.80;98.00;;;;;;4958956;28;20473;-90
2023/08/19 01:43:57;;;;;;;7.60;6.80;;;26.80;98.00;;;;;;4975422;28;20438;-89
2023/08/19 01:46:26;;;;;;;7.20;6.50;;;26.80;98.00;;;;;;4974619;28;20816;-90
2023/08/19 01:48:55;;;;;;;7.57;6.87;;;26.80;98.00;;;;;;4958861;28;20962;-90
2023/08/19 01:51:21;;;;;;;7.30;6.70;;;26.80;98.00;;;;;;4958388;28;20840;-89
2023/08/19 01:53:47;;;;;;;7.30;6.70;;;26.80;98.00;;;;;;4974340;28;20445;-89
2023/08/19 01:56:14;;;;;;;6.97;6.37;;;26.80;98.00;;;;;;4974560;28;20439;-90
2023/08/19 01:58:40;;;;;;;6.90;6.40;;;26.70;98.00;;;;;;4959343;28;20556;-93
2023/08/19 02:01:13;;;;;;;7.10;6.47;;;26.70;98.00;;;;;;4943041;28;20462;-96
2023/08/19 02:03:39;;;;;;;6.80;6.10;;;26.70;98.00;;;;;;4959245;28;20552;-95
2023/08/19 02:06:07;;;;;;;7.03;6.33;;;26.70;98.00;;;;;;4958818;28;21127;-94
2023/08/19 02:08:33;;;;;;;6.70;6.10;;;26.70;98.00;;;;;;4943763;28;20429;-95
2023/08/19 02:11:01;;;;;;;6.67;6.27;;;26.70;98.00;;;;;;4962168;28;20209;-96
2023/08/19 02:13:32;;;;;;;7.03;6.43;;;26.70;98.00;;;;;;4962325;28;20448;-95
2023/08/19 02:15:57;;;;;;;7.13;6.53;;;26.70;98.00;;;;;;4962263;28;20433;-94
2023/08/19 02:18:29;;;;;;;7.63;6.20;;;26.70;98.00;;;;;;4963749;28;20425;-95
2023/08/19 02:20:55;;;;;;;7.10;6.50;;;26.70;98.00;;;;;;4962842;28;20429;-93
2023/08/19 02:23:21;;;;;;;6.87;6.30;;;26.70;98.00;;;;;;4962415;28;21025;-94
2023/08/19 02:25:50;;;;;;;6.83;6.33;;;26.70;98.00;;;;;;4962140;28;20538;-95
2023/08/19 02:28:16;;;;;;;10.77;6.63;;;26.70;98.00;;;;;;4962362;28;21094;-93
2023/08/19 02:30:42;;;;;;;7.27;6.60;;;26.60;98.00;;;;;;4947190;28;20428;-96
2023/08/19 02:33:08;;;;;;;6.57;6.17;;;26.60;98.10;;;;;;4994165;28;20435;-95
2023/08/19 02:35:34;;;;;;;6.83;6.23;;;26.60;98.00;;;;;;4978344;28;20498;-95
2023/08/19 02:38:02;;;;;;;7.40;6.70;;;26.60;98.00;;;;;;4978494;28;20463;-94
2023/08/19 02:40:31;;;;;;;6.23;5.73;;;26.60;98.00;;;;;;4978850;28;20428;-96
2023/08/19 02:42:57;;;;;;;6.40;5.90;;;26.60;97.90;;;;;;4946262;28;21272;-95
2023/08/19 02:45:25;;;;;;;6.80;6.20;;;26.60;98.00;;;;;;4977942;28;21040;-93
2023/08/19 02:47:51;;;;;;;6.70;6.13;;;26.60;98.00;;;;;;4962107;28;20472;-94
2023/08/19 02:50:17;;;;;;;6.70;6.10;;;26.60;98.00;;;;;;4977726;28;20457;-95
2023/08/19 02:52:43;;;;;;;6.67;6.20;;;26.60;98.00;;;;;;4945816;28;20440;-95
2023/08/19 02:55:09;;;;;;;6.60;6.00;;;26.60;98.00;;;;;;4961989;28;20437;-93
2023/08/19 02:57:35;;;;;;;5.90;5.40;;;26.50;98.00;;;;;;4961562;28;20584;-96
2023/08/19 03:00:02;;;;;;;6.80;6.30;;;26.50;98.00;;;;;;4946180;28;20441;-94
2023/08/19 03:02:28;;;;;;;6.70;6.20;;;26.50;98.00;;;;;;4961685;28;20480;-95
2023/08/19 03:04:53;;;;;;;6.90;6.23;;;26.50;98.00;;;;;;4977941;28;20402;-96
2023/08/19 03:07:19;;;;;;;6.83;6.20;;;26.50;98.00;;;;;;4961823;28;20512;-95
2023/08/19 03:09:46;;;;;;;6.80;5.87;;;26.50;98.00;;;;;;4945951;28;21000;-95
2023/08/19 03:12:12;;;;;;;7.07;6.37;;;26.50;97.90;;;;;;4946079;28;20924;-96
2023/08/19 03:14:38;;;;;;;6.00;5.53;;;26.50;97.90;;;;;;4962056;28;20437;-96
2023/08/19 03:17:04;;;;;;;6.87;6.27;;;26.50;98.00;;;;;;4962654;28;20441;-96
2023/08/19 03:19:32;;;;;;;7.00;6.30;;;26.40;97.90;;;;;;4979454;28;20429;-95
2023/08/19 03:21:58;;;;;;;7.13;6.53;;;26.40;97.90;;;;;;4949569;28;20976;-96
2023/08/19 03:24:27;;;;;;;6.97;6.03;;;26.40;97.90;;;;;;4965655;28;20437;-95
2023/08/19 03:26:53;;;;;;;6.33;5.80;;;26.40;97.90;;;;;;4981733;28;20429;-96
2023/08/19 03:29:21;;;;;;;6.10;5.60;;;26.40;98.00;;;;;;4966777;28;20503;-92
2023/08/19 03:31:48;;;;;;;5.70;5.20;;;26.40;98.00;;;;;;4965516;28;20456;-96
2023/08/19 03:34:13;;;;;;;6.97;6.37;;;26.40;97.90;;;;;;4965361;28;20496;-95
2023/08/19 03:36:39;;;;;;;6.23;5.73;;;26.40;97.90;;;;;;4964976;28;20521;-95
2023/08/19 03:39:06;;;;;;;6.60;6.10;;;26.40;97.90;;;;;;4981192;28;20906;-95
2023/08/19 03:41:32;;;;;;;7.20;5.67;;;26.40;97.90;;;;;;4997142;28;20477;-93
2023/08/19 03:43:58;;;;;;;6.20;5.60;;;26.40;97.90;;;;;;4981113;28;20425;-95
2023/08/19 03:46:24;;;;;;;6.13;5.63;;;26.40;97.90;;;;;;4981530;28;20434;-96
2023/08/19 03:48:50;;;;;;;6.40;5.80;;;26.40;98.00;;;;;;4981663;28;20521;-95
2023/08/19 03:51:15;;;;;;;7.07;5.80;;;26.40;98.00;;;;;;4949283;28;20186;-94
2023/08/19 03:53:41;;;;;;;6.37;5.87;;;26.40;98.00;;;;;;4965403;28;20449;-96
2023/08/19 03:56:07;;;;;;;6.30;5.80;;;26.30;97.90;;;;;;4965228;28;20428;-93
2023/08/19 03:58:33;;;;;;;6.27;5.67;;;26.30;97.90;;;;;;4981546;28;20420;-96
2023/08/19 04:01:05;;;;;;;6.80;6.20;;;26.50;98.00;;;;;;4979787;28;20457;-95
2023/08/19 04:03:31;;;;;;;7.00;6.33;;;26.30;98.10;;;;;;4978162;28;20465;-93
2023/08/19 04:05:57;;;;;;;6.37;5.40;;;26.30;97.90;;;;;;4964966;28;21132;-95
2023/08/19 04:08:25;;;;;;;6.70;6.10;;;26.30;97.90;;;;;;4981703;28;20420;-95
2023/08/19 04:10:51;;;;;;;6.50;5.90;;;26.30;97.90;;;;;;4963820;28;20432;-96
2023/08/19 04:13:18;;;;;;;6.33;5.83;;;26.30;97.90;;;;;;4996655;28;20782;-95
2023/08/19 04:15:44;;;;;;;5.77;5.27;;;26.30;97.90;;;;;;4964681;28;20835;-96
2023/08/19 04:18:11;;;;;;;7.73;6.40;;;26.30;98.00;;;;;;4964570;28;20466;-95
2023/08/19 04:20:38;;;;;;;7.07;6.33;;;26.30;97.80;;;;;;4980681;28;20498;-95
2023/08/19 04:23:05;;;;;;;6.43;5.83;;;26.20;97.70;;;;;;4981670;28;20457;-96
2023/08/19 04:25:31;;;;;;;7.47;5.60;;;26.20;97.70;;;;;;4979928;28;20765;-95
2023/08/19 04:27:59;;;;;;;6.00;5.43;;;26.20;97.70;;;;;;4963158;28;21020;-94
2023/08/19 04:30:25;;;;;;;6.17;5.57;;;26.20;98.00;;;;;;4961584;28;20528;-96
2023/08/19 04:32:52;;;;;;;5.73;5.23;;;26.20;97.90;;;;;;4996892;28;20451;-96
2023/08/19 04:35:38;;;;;;;5.87;5.37;;;26.20;97.80;;;;;;4990225;28;20583;-92
2023/08/19 04:38:04;;;;;;;5.60;5.20;;;26.20;97.80;;;;;;4983870;28;20784;-96
2023/08/19 04:40:32;;;;;;;5.80;5.27;;;26.20;98.00;;;;;;4948221;28;20445;-96
2023/08/19 04:43:00;;;;;;;7.20;5.70;;;26.20;97.90;;;;;;4979499;28;20474;-96
2023/08/19 04:45:26;;;;;;;7.73;6.00;;;26.20;97.90;;;;;;4947313;28;20450;-96
2023/08/19 04:47:59;;;;;;;5.83;5.33;;;26.20;98.00;;;;;;4948708;28;20448;-94
2023/08/19 04:50:29;;;;;;;5.77;5.23;;;26.20;98.00;;;;;;4947680;28;20437;-95
2023/08/19 04:52:55;;;;;;;6.07;5.57;;;26.20;97.90;;;;;;4980009;28;20775;-95
2023/08/19 04:55:21;;;;;;;6.10;5.33;;;26.20;98.00;;;;;;4979987;28;20735;-95
2023/08/19 04:57:47;;;;;;;6.60;5.70;;;26.10;97.70;;;;;;4962233;28;20457;-96
2023/08/19 05:00:15;;;;;;;6.30;5.80;;;26.10;97.90;;;;;;4971949;28;20433;-96
2023/08/19 05:02:44;;;;;;;6.53;5.93;;;26.10;97.80;;;;;;4995390;28;20985;-95
2023/08/19 05:05:11;;;;;;;5.53;5.13;;;26.10;97.80;;;;;;4978778;28;20773;-94
2023/08/19 05:07:37;;;;;;;6.03;5.53;;;26.10;97.80;;;;;;4995218;28;20432;-96
2023/08/19 05:10:07;;;;;;;5.50;5.10;;;26.10;97.70;;;;;;4963657;28;20449;-96
2023/08/19 05:12:36;;;;;;;5.90;5.00;;;26.10;97.60;;;;;;4962462;28;20439;-95
2023/08/19 05:15:09;;;;;;;5.73;5.20;;;26.10;97.70;;;;;;4963461;28;20467;-96
2023/08/19 05:17:37;;;;;;;6.30;5.80;;;26.10;97.60;;;;;;4963536;28;20468;-94
2023/08/19 05:20:38;;;;;;;5.90;5.40;;;26.10;97.70;;;;;;4963948;28;20401;-94
2023/08/19 05:23:10;;;;;;;5.93;5.27;;;26.10;97.60;;;;;;4978465;28;20622;-93
2023/08/19 05:31:43;;;;;;;8.50;5.53;;;26.10;97.50;;;;;;4829420;26;20494;-75
2023/08/19 05:34:11;;;;;;;6.33;5.73;;;26.10;97.50;;;;;;5003977;28;20436;-75
2023/08/19 05:36:37;;;;;;;5.20;4.80;;;26.10;97.50;;;;;;5002876;28;20523;-75
2023/08/19 05:39:08;;;;;;;5.77;5.30;;;26.10;97.50;;;;;;5001185;28;20485;-75
2023/08/19 05:41:34;;;;;;;6.43;5.90;;;26.10;97.50;;;;;;4989203;28;20491;-75
2023/08/19 05:44:00;;;;;;;6.07;5.47;;;26.10;97.40;;;;;;4986195;28;20467;-75
2023/08/19 05:46:26;;;;;;;5.87;5.37;;;26.10;97.40;;;;;;4956953;28;20443;-75
2023/08/19 05:48:55;;;;;;;6.57;5.30;;;26.10;97.30;;;;;;4958359;28;20512;-75
2023/08/19 05:51:21;;;;;;;6.40;5.33;;;26.10;97.70;;;;;;4967114;28;20513;-74
2023/08/19 05:53:49;;;;;;;5.77;5.27;;;26.00;97.20;;;;;;4967469;28;20452;-75
2023/08/19 05:56:21;;;;;;;4.90;4.47;;;26.10;97.30;;;;;;4966395;28;20967;-75
2023/08/19 05:58:47;;;;;;;5.97;5.47;;;26.10;97.30;;;;;;4967660;28;20454;-74
2023/08/19 06:01:13;;;;;;;8.53;5.77;;;26.00;97.20;;;;;;4997219;28;20772;-74
2023/08/19 06:03:44;;;;;;;5.90;5.40;;;26.00;97.20;;;;;;5002970;28;20495;-75
2023/08/19 06:06:13;;;;;;;6.53;5.80;;;26.00;97.20;;;;;;4997568;28;20526;-75
2023/08/19 06:08:44;;;;;;;6.17;5.67;;;26.00;97.10;;;;;;4986132;28;20448;-74
2023/08/19 06:11:10;;;;;;;6.27;5.77;;;26.00;97.10;;;;;;4989295;28;20437;-75
2023/08/19 06:13:37;;;;;;;5.97;5.50;;;26.00;97.10;;;;;;4959271;28;20453;-74
2023/08/19 06:16:05;;;;;;;6.50;5.20;;;26.00;97.00;;;;;;4957486;28;20739;-75
2023/08/19 06:18:34;;;;;;;5.57;5.10;;;26.00;97.00;;;;;;4982865;28;20862;-75
2023/08/19 06:21:03;;;;;;;5.60;5.20;;;26.00;97.00;;;;;;4982909;28;20424;-74
2023/08/19 06:23:33;;;;;;;5.67;5.17;;;26.00;97.10;;;;;;4966820;28;20489;-75
2023/08/19 06:26:01;;;;;;;5.87;5.37;;;26.00;97.00;;;;;;4966492;28;20435;-74
2023/08/19 06:28:27;;;;;;;7.70;5.77;;;26.00;97.00;;;;;;4982824;28;20509;-74
2023/08/19 06:30:56;;;;;;;6.60;6.10;;;26.00;97.00;;;;;;4992750;28;20444;-75
2023/08/19 06:33:26;;;;;;;5.90;5.50;;;26.00;97.00;;;;;;5002310;28;20551;-74
2023/08/19 06:35:59;;;;;;;6.00;5.47;;;26.00;97.00;;;;;;4991348;28;20455;-75
2023/08/19 06:38:32;;;;;;;6.60;5.87;;;26.00;97.00;;;;;;4981930;28;21069;-74
2023/08/19 06:41:04;;;;;;;6.33;5.73;;;26.00;97.00;;;;;;4980053;28;20882;-75
2023/08/19 06:43:32;;;;;;;5.27;4.87;;;26.00;97.00;;;;;;4998072;28;20484;-74
2023/08/19 06:46:02;;;;;;;7.00;5.20;;;26.00;97.00;;;;;;4982591;28;20429;-75
2023/08/19 06:48:31;;;;;;;5.33;4.93;;;26.00;97.00;;;;;;4966480;28;20459;-74
2023/08/19 06:50:57;;;;;;;5.47;5.03;;;26.00;97.00;;;;;;4984045;28;20444;-74
2023/08/19 06:53:27;;;;;;;6.70;5.63;;;26.00;97.00;;;;;;4972526;28;20495;-74
2023/08/19 06:56:28;;;;;;;5.60;5.20;;;26.00;97.00;;;;;;4978200;28;20457;-75
2023/08/19 06:59:31;;;;;;;6.40;5.20;;;26.00;97.00;;;;;;4985247;28;20440;-75
2023/08/19 07:02:02;;;;;;;6.10;5.60;;;26.00;97.00;;;;;;4976483;28;20524;-75
2023/08/19 07:04:29;;;;;;;5.53;5.03;;;26.00;97.00;;;;;;4985830;28;20463;-74
2023/08/19 07:07:05;;;;;;;5.60;5.20;;;26.00;97.00;;;;;;4987344;28;20440;-75
2023/08/19 07:09:33;;;;;;;5.90;5.30;;;26.00;97.00;;;;;;4985761;28;20443;-75
2023/08/19 07:12:03;;;;;;;6.53;6.03;;;26.00;97.00;;;;;;5001948;28;21002;-75
2023/08/19 07:14:34;;;;;;;5.53;5.13;;;26.00;97.00;;;;;;4985994;28;20431;-74
2023/08/19 07:17:05;;;;;;;6.90;5.83;;;26.00;97.10;;;;;;5002423;28;20906;-74
2023/08/19 07:19:37;;;;;;;5.80;5.40;;;26.00;97.10;;;;;;4985911;28;20432;-74
2023/08/19 07:22:05;;;;;;;6.23;5.53;;;26.00;97.00;;;;;;4985943;28;21350;-74
2023/08/19 07:24:31;;;;;;;5.93;5.10;;;26.00;97.00;;;;;;4962353;28;20445;-74
2023/08/19 07:27:03;;;;;;;6.17;5.77;;;26.00;97.00;;;;;;4985405;28;20431;-75
2023/08/19 07:29:30;;;;;;;5.50;5.10;;;26.00;97.00;;;;;;4953437;28;20507;-74
2023/08/19 07:31:58;;;;;;;5.70;5.20;;;26.00;97.00;;;;;;4987031;28;20856;-74
2023/08/19 07:34:24;;;;;;;5.53;5.10;;;26.00;97.00;;;;;;4978236;28;20460;-75
2023/08/19 07:36:51;;;;;;;6.17;5.67;;;26.00;97.00;;;;;;4987226;28;20436;-74
2023/08/19 07:39:19;;;;;;;5.77;5.33;;;26.00;97.00;;;;;;4983746;28;20795;-74
2023/08/19 07:41:45;;;;;;;6.30;5.70;;;26.00;97.00;;;;;;4966767;28;20552;-74
2023/08/19 07:44:13;;;;;;;5.83;5.33;;;26.00;97.00;;;;;;4972676;28;20492;-74
2023/08/19 07:46:41;;;;;;;6.57;6.00;;;26.00;97.00;;;;;;4985452;28;20469;-74
2023/08/19 07:49:11;;;;;;;5.90;5.30;;;26.00;97.30;;;;;;4985086;28;20469;-74
2023/08/19 07:51:37;;;;;;;5.53;5.03;;;26.00;97.00;;;;;;4985988;28;20418;-74
2023/08/19 07:54:03;;;;;;;6.30;5.80;;;26.00;97.00;;;;;;4954020;28;20456;-74
2023/08/19 07:56:34;;;;;;;5.70;5.23;;;26.00;97.00;;;;;;4984243;28;20428;-74
2023/08/19 07:59:00;;;;;;;5.83;5.33;;;26.00;97.00;;;;;;4966222;28;20434;-75
2023/08/19 08:01:27;;;;;;;5.70;5.13;;;26.00;97.00;;;;;;4967754;28;20498;-74
2023/08/19 08:03:55;;;;;;;5.30;4.90;;;26.00;97.00;;;;;;4950972;28;21034;-75
2023/08/19 08:06:23;;;;;;;5.20;4.80;;;26.00;97.00;;;;;;4971583;28;20487;-75
2023/08/19 08:08:53;;;;;;;7.20;6.33;;;26.10;97.10;;;;;;4985024;28;20870;-74
2023/08/19 08:11:21;;;;;;;5.00;4.50;;;26.10;97.10;;;;;;4984271;28;20973;-74
2023/08/19 08:13:47;;;;;;;6.83;5.40;;;26.10;97.10;;;;;;4968079;28;20449;-74
2023/08/19 08:16:16;;;;;;;5.20;4.73;;;26.10;97.10;;;;;;4952103;28;20216;-75
2023/08/19 08:18:42;;;;;;;5.43;4.97;;;26.10;97.10;;;;;;4984578;28;20436;-75
2023/08/19 08:21:12;;;;;;;5.30;4.23;;;26.10;97.10;;;;;;4984242;28;20535;-77
2023/08/19 08:23:43;;;;;;;6.13;5.53;;;26.10;97.10;;;;;;4986848;28;21058;-75
2023/08/19 08:26:13;;;;;;;5.47;5.00;;;26.10;97.10;;;;;;4975845;28;20473;-74
2023/08/19 08:28:41;;;;;;;5.80;5.30;;;26.10;97.10;;;;;;4982021;28;20456;-76
2023/08/19 08:31:07;;;;;;;5.83;5.43;;;26.10;97.20;;;;;;4968161;28;20461;-76
2023/08/19 08:33:36;;;;;;;5.40;4.90;;;26.10;97.20;;;;;;4951316;28;20590;-76
2023/08/19 08:36:05;;;;;;;7.20;5.93;;;26.10;97.20;;;;;;4971123;28;20430;-76
2023/08/19 08:38:31;;;;;;;5.90;5.50;;;26.10;97.20;;;;;;4980576;28;20432;-76
2023/08/19 08:41:02;;;;;;;5.67;5.17;;;26.10;97.20;;;;;;4964541;28;20529;-74
2023/08/19 08:43:32;;;;;;;6.37;5.77;;;26.10;97.20;;;;;;4947488;28;20479;-74
2023/08/19 08:45:59;;;;;;;5.90;5.40;;;26.10;97.30;;;;;;4976410;28;20446;-74
2023/08/19 08:48:29;;;;;;;5.90;5.40;;;26.20;97.30;;;;;;4978375;28;20506;-74
2023/08/19 08:50:55;;;;;;;7.87;5.67;;;26.20;97.40;;;;;;4977328;28;20429;-76
2023/08/19 08:53:30;;;;;;;5.80;5.30;;;26.20;97.40;;;;;;5004542;28;20467;-75
2023/08/19 08:56:02;;;;;;;9.73;5.50;;;26.20;97.40;;;;;;5005089;28;20537;-75
2023/08/19 08:58:28;;;;;;;6.27;5.70;;;26.20;97.50;;;;;;4972759;28;20460;-74
2023/08/19 09:00:57;;;;;;;6.63;5.83;;;26.20;97.40;;;;;;5001486;28;20432;-74
2023/08/19 09:03:32;;;;;;;6.03;5.53;;;26.20;97.50;;;;;;4952180;28;20568;-74
2023/08/19 09:06:23;;;;;;;6.20;5.70;;;26.20;97.50;;;;;;4967500;28;20451;-74
2023/08/19 09:08:58;;;;;;;6.33;5.67;;;26.20;97.50;;;;;;4971232;28;20856;-75
2023/08/19 09:11:31;;;;;;;5.90;5.33;;;26.30;97.60;;;;;;4965847;28;20866;-74
2023/08/19 09:14:21;;;;;;;6.33;5.73;;;26.30;97.70;;;;;;4964230;28;20439;-74
2023/08/19 09:16:50;;;;;;;6.43;5.20;;;26.30;97.70;;;;;;4982508;28;20420;-74
2023/08/19 09:19:17;;;;;;;6.43;5.33;;;26.30;97.60;;;;;;4984500;28;20450;-74
2023/08/19 09:21:46;;;;;;;6.80;5.43;;;26.30;97.60;;;;;;4973184;28;20449;-75
2023/08/19 09:24:16;;;;;;;5.53;5.13;;;26.30;97.50;;;;;;4976150;28;20894;-74
2023/08/19 09:26:47;;;;;;;6.30;5.70;;;26.30;97.50;;;;;;4968663;28;20494;-75
2023/08/19 09:29:14;;;;;;;5.87;5.27;;;26.30;97.50;;;;;;4987343;28;20428;-74
2023/08/19 09:31:40;;;;;;;6.83;4.87;;;26.30;97.50;;;;;;4983205;28;20861;-75
2023/08/19 09:34:08;;;;;;;4.90;4.50;;;26.40;97.60;;;;;;4983653;28;20453;-75
2023/08/19 09:36:34;;;;;;;5.50;5.00;;;26.40;97.60;;;;;;4968031;28;20471;-75
2023/08/19 09:39:01;;;;;;;7.00;6.07;;;26.40;97.60;;;;;;4948922;28;20478;-74
2023/08/19 09:41:30;;;;;;;8.40;5.67;;;26.40;97.50;;;;;;4964054;28;20269;-74
2023/08/19 09:43:59;;;;;;;5.87;5.37;;;26.40;97.50;;;;;;4963566;28;20449;-74
2023/08/19 09:46:32;;;;;;;5.77;5.27;;;26.40;97.50;;;;;;4963532;28;20432;-74
2023/08/19 09:49:00;;;;;;;5.70;5.20;;;26.40;97.50;;;;;;4966599;28;20456;-74
2023/08/19 09:51:29;;;;;;;5.70;5.20;;;26.40;97.60;;;;;;4966363;28;20445;-74
2023/08/19 09:53:56;;;;;;;6.50;5.60;;;26.40;97.50;;;;;;4982648;28;20454;-74
2023/08/19 09:56:29;;;;;;;6.17;4.60;;;26.50;97.60;;;;;;4981333;28;20421;-75
2023/08/19 09:58:59;;;;;;;5.90;5.50;;;26.50;97.70;;;;;;4963477;28;20453;-75
2023/08/19 10:01:27;;;;;;;5.80;5.30;;;26.50;97.70;;;;;;4969726;28;20551;-75
2023/08/19 10:03:53;;;;;;;6.70;6.20;;;26.50;97.80;;;;;;4982838;28;20604;-75
2023/08/19 10:06:27;;;;;;;5.90;5.40;;;26.50;97.80;;;;;;4999894;28;20455;-75
2023/08/19 10:09:13;;;;;;;6.10;5.60;;;26.50;98.00;;;;;;4988224;23;20543;-72
2023/08/19 10:11:46;;;;;;;7.00;5.90;;;26.60;97.90;;;;;;4935863;28;20872;-72
2023/08/19 10:14:13;;;;;;;5.50;5.10;;;26.60;98.10;;;;;;4940739;29;20428;-72
2023/08/19 10:16:45;;;;;;;6.50;5.90;;;26.60;98.20;;;;;;4940110;29;21104;-72
2023/08/19 10:19:19;;;;;;;7.20;5.57;;;26.60;98.10;;;;;;4925977;29;20424;-73
2023/08/19 10:21:48;;;;;;;6.37;5.83;;;26.60;98.20;;;;;;4908533;29;20482;-72
2023/08/19 10:24:17;;;;;;;6.60;6.00;;;26.60;98.20;;;;;;4909077;29;20550;-74
2023/08/19 10:26:48;;;;;;;6.30;5.80;;;26.70;98.30;;;;;;4939695;29;20516;-72
2023/08/19 10:29:14;;;;;;;6.80;6.30;;;26.70;98.30;;;;;;4927550;29;20542;-72
2023/08/19 10:31:42;;;;;;;6.47;5.87;;;26.70;98.30;;;;;;4918661;28;20438;-72
2023/08/19 10:34:18;;;;;;;6.93;6.33;;;26.70;98.30;;;;;;4950792;28;20438;-72
2023/08/19 10:37:03;;;;;;;7.30;6.70;;;26.70;98.30;;;;;;4967000;28;20422;-72
2023/08/19 10:39:31;;;;;;;8.57;6.30;;;26.70;98.30;;;;;;4944449;28;20524;-72
2023/08/19 10:42:00;;;;;;;7.67;6.93;;;26.80;98.30;;;;;;4956402;28;21041;-72
2023/08/19 10:44:31;;;;;;;8.20;6.30;;;26.80;98.30;;;;;;4931250;29;20214;-72
2023/08/19 10:47:10;;;;;;;10.80;7.60;;;26.80;98.40;;;;;;4948097;29;20403;-72
2023/08/19 10:49:38;;;;;;;7.90;7.10;;;26.80;98.40;;;;;;4931729;29;20953;-73
2023/08/19 10:52:19;;;;;;;7.67;7.07;;;26.80;98.50;;;;;;4931544;29;20528;-73
2023/08/19 10:54:49;;;;;;;8.20;7.47;;;26.90;98.60;;;;;;4963113;28;20544;-72
2023/08/19 10:57:24;;;;;;;8.20;7.40;;;26.90;98.60;;;;;;4944968;29;20456;-72
2023/08/19 10:59:56;;;;;;;8.93;8.23;;;26.90;98.50;;;;;;4941619;29;21296;-72
2023/08/19 11:02:22;;;;;;;8.47;7.77;;;26.90;98.40;;;;;;4962735;28;20474;-72
2023/08/19 11:04:50;;;;;;;8.23;7.37;;;26.90;98.50;;;;;;4946903;29;20447;-73
2023/08/19 11:07:16;;;;;;;8.57;7.80;;;27.00;98.40;;;;;;4931011;29;20440;-73
2023/08/19 11:09:45;;;;;;;8.17;7.47;;;27.00;98.50;;;;;;4952722;28;20441;-72
2023/08/19 11:12:19;;;;;;;7.40;6.80;;;27.00;98.50;;;;;;4967984;28;20438;-73
2023/08/19 11:14:52;;;;;;;9.07;8.17;;;27.00;98.40;;;;;;4967881;28;20464;-72
2023/08/19 11:17:29;;;;;;;8.43;7.73;;;27.00;98.60;;;;;;4947063;28;20480;-73
2023/08/19 11:19:55;;;;;;;8.60;7.90;;;27.00;98.60;;;;;;4947661;29;20435;-73
2023/08/19 11:22:21;;;;;;;8.90;8.10;;;27.10;98.90;;;;;;4918405;29;20467;-72
2023/08/19 11:24:47;;;;;;;9.30;8.40;;;27.10;98.90;;;;;;4945612;28;20451;-72
2023/08/19 11:27:14;;;;;;;9.87;8.90;;;27.10;98.80;;;;;;4944646;28;20445;-72
2023/08/19 11:29:44;;;;;;;9.03;8.13;;;27.10;98.90;;;;;;4933517;29;20447;-73
2023/08/19 11:32:17;;;;;;;9.77;8.63;;;27.10;98.90;;;;;;4926353;29;20444;-73
2023/08/19 11:34:43;;;;;;;8.70;8.00;;;27.10;98.90;;;;;;4910177;29;20448;-71
2023/08/19 11:37:09;;;;;;;9.70;8.90;;;27.10;98.80;;;;;;4927669;29;20515;-72
2023/08/19 11:39:35;;;;;;;8.90;7.93;;;27.10;99.10;;;;;;4935531;28;20931;-71
2023/08/19 11:42:02;;;;;;;9.30;8.40;;;27.10;99.10;;;;;;4945064;29;20469;-71
2023/08/19 11:44:31;;;;;;;8.90;8.20;;;27.10;99.10;;;;;;4927455;29;20238;-71
2023/08/19 11:46:58;;;;;;;8.80;8.00;;;27.10;99.30;;;;;;4944636;29;20867;-71
2023/08/19 11:49:28;;;;;;;9.63;8.63;;;27.10;99.00;;;;;;4929953;29;20510;-71
2023/08/19 11:51:56;;;;;;;8.80;8.00;;;27.10;99.00;;;;;;4942891;29;20455;-71
2023/08/19 11:54:24;;;;;;;11.27;9.03;;;27.20;99.40;;;;;;4948901;28;20523;-71
2023/08/19 11:56:55;;;;;;;10.17;9.23;;;27.20;99.40;;;;;;4924394;29;21296;-71
2023/08/19 11:59:34;;;;;;;10.10;9.20;;;27.20;99.30;;;;;;4926244;29;20506;-71
2023/08/19 12:02:08;;;;;;;9.57;8.77;;;27.20;99.40;;;;;;4958957;28;20557;-71
2023/08/19 12:04:37;;;;;;;9.80;9.00;;;27.20;99.40;;;;;;4926585;29;20466;-71
2023/08/19 12:07:13;;;;;;;9.50;8.80;;;27.20;99.60;;;;;;4926781;29;21056;-76
2023/08/19 12:09:40;;;;;;;10.37;9.27;;;27.20;99.90;;;;;;4944181;28;20454;-72
2023/08/19 12:12:14;;;;;;;10.10;9.10;;;27.20;99.70;;;;;;4954557;28;20545;-72
2023/08/19 12:14:40;;;;;;;14.03;9.63;;;27.30;99.80;;;;;;4923027;29;21219;-71
2023/08/19 12:17:07;;;;;;;10.27;9.30;;;27.30;99.90;;;;;;4942447;28;21025;-72
2023/08/19 12:19:36;;;;;;;11.40;9.93;;;27.30;99.90;;;;;;4917731;29;20446;-71
2023/08/19 12:22:03;;;;;;;11.63;10.63;;;27.20;99.90;;;;;;4925980;29;20469;-70
2023/08/19 12:24:29;;;;;;;12.00;10.80;;;27.30;99.90;;;;;;4934839;29;20486;-73
2023/08/19 12:26:55;;;;;;;11.20;10.30;;;27.30;99.90;;;;;;4924499;29;20956;-71
2023/08/19 12:29:22;;;;;;;12.17;11.00;;;27.30;99.90;;;;;;4924873;29;20450;-72
2023/08/19 12:31:50;;;;;;;11.67;10.00;;;27.30;99.90;;;;;;4921197;29;20443;-71
2023/08/19 12:34:19;;;;;;;12.33;11.13;;;27.40;99.90;;;;;;4935728;29;20891;-71
2023/08/19 12:36:46;;;;;;;11.97;10.70;;;27.30;99.90;;;;;;4924748;29;20444;-71
2023/08/19 12:39:14;;;;;;;13.90;10.83;;;27.40;99.90;;;;;;4944635;28;20187;-71
2023/08/19 12:41:44;;;;;;;12.27;11.03;;;27.40;99.90;;;;;;4944315;29;20952;-71
2023/08/19 12:44:13;;;;;;;12.07;10.87;;;27.30;99.90;;;;;;4928429;29;20211;-71
2023/08/19 12:46:43;;;;;;;11.97;10.87;;;27.40;99.90;;;;;;4912112;29;21076;-71
2023/08/19 12:49:14;;;;;;;11.93;10.80;;;27.40;99.90;;;;;;4912427;29;20510;-71
2023/08/19 12:51:40;;;;;;;12.53;11.53;;;27.40;99.90;;;;;;4952419;28;20828;-72
2023/08/19 12:54:31;;;;;;;12.70;11.63;;;27.40;99.90;;;;;;4935208;29;20478;-71
2023/08/19 12:56:57;;;;;;;12.50;11.43;;;27.40;99.90;;;;;;4927756;29;20442;-71
2023/08/19 12:59:26;;;;;;;12.40;11.20;;;27.40;99.90;;;;;;4928277;29;20423;-71
2023/08/19 13:01:52;;;;;;;12.67;11.57;;;27.40;99.90;;;;;;4945095;29;20552;-71